Time,TemperatureF,DewpointF,PressureIn,WindDirection,WindDirectionDegrees,WindSpeedMPH,WindSpeedGustMPH,Humidity,HourlyPrecipIn,Conditions,Clouds,dailyrainin,SoftwareType,DateUTC
2013-01-18 00:00:00,34.3,31.4,30.17,NE,45,1.0,4.0,89,0.00,,CLR,0.00,VWS V13.01,2013-01-18 08:00:00,
2013-01-18 00:15:00,34.3,31.4,30.17,NE,45,0.0,3.0,89,0.00,,CLR,0.00,VWS V13.01,2013-01-18 08:15:00,
2013-01-18 00:30:00,34.3,31.7,30.17,NE,45,0.0,0.0,90,0.00,,CLR,0.00,VWS V13.01,2013-01-18 08:30:00,
2013-01-18 00:45:00,34.3,31.4,30.17,NE,45,0.0,0.0,89,0.00,,CLR,0.00,VWS V13.01,2013-01-18 08:45:00,
2013-01-18 01:00:00,34.1,31.2,30.17,NE,45,0.0,6.0,89,0.00,,CLR,0.00,VWS V13.01,2013-01-18 09:00:00,
2013-01-18 01:15:00,33.7,30.8,30.18,NE,45,2.0,6.0,89,0.00,,CLR,0.00,VWS V13.01,2013-01-18 09:15:00,
2013-01-18 01:30:00,33.3,30.1,30.18,NE,45,0.0,2.0,88,0.00,,CLR,0.00,VWS V13.01,2013-01-18 09:30:00,
2013-01-18 01:45:00,32.7,29.5,30.18,NE,45,0.0,0.0,88,0.00,,CLR,0.00,VWS V13.01,2013-01-18 09:45:00,
2013-01-18 02:00:00,32.5,29.6,30.18,NE,45,0.0,4.0,89,0.00,,CLR,0.00,VWS V13.01,2013-01-18 10:00:00,
2013-01-18 02:15:00,32.6,29.7,30.17,NE,45,1.0,5.0,89,0.00,,CLR,0.00,VWS V13.01,2013-01-18 10:15:00,
2013-01-18 02:30:00,33.0,30.4,30.17,NE,45,1.0,5.0,90,0.00,,CLR,0.00,VWS V13.01,2013-01-18 10:30:00,
2013-01-18 02:45:00,33.4,30.5,30.17,NE,45,1.0,5.0,89,0.00,,CLR,0.00,VWS V13.01,2013-01-18 10:45:00,
2013-01-18 03:00:00,33.7,30.8,30.18,NNE,22,1.0,6.0,89,0.00,,CLR,0.00,VWS V13.01,2013-01-18 11:00:00,
2013-01-18 03:15:00,34.0,30.8,30.17,NNE,22,0.0,0.0,88,0.00,,CLR,0.00,VWS V13.01,2013-01-18 11:15:00,
2013-01-18 03:30:00,33.6,30.1,30.17,NNE,22,0.0,0.0,87,0.00,,CLR,0.00,VWS V13.01,2013-01-18 11:30:00,
2013-01-18 03:45:00,33.3,30.1,30.17,NNE,22,2.0,7.0,88,0.00,,CLR,0.00,VWS V13.01,2013-01-18 11:45:00,
2013-01-18 04:00:00,34.0,31.4,30.17,NNE,22,3.0,8.0,90,0.00,,CLR,0.00,VWS V13.01,2013-01-18 12:00:00,
2013-01-18 04:15:00,35.1,32.7,30.17,North,0,5.0,9.0,91,0.00,,CLR,0.00,VWS V13.01,2013-01-18 12:15:00,
2013-01-18 04:30:00,36.1,33.7,30.17,North,0,6.0,11.0,91,0.00,,CLR,0.00,VWS V13.01,2013-01-18 12:30:00,
2013-01-18 04:45:00,36.2,33.6,30.17,North,0,5.0,9.0,90,0.00,,CLR,0.00,VWS V13.01,2013-01-18 12:45:00,
2013-01-18 05:00:00,36.1,33.2,30.17,North,0,5.0,11.0,89,0.00,,CLR,0.00,VWS V13.01,2013-01-18 13:00:00,
2013-01-18 05:15:00,36.0,33.1,30.17,North,0,4.0,9.0,89,0.00,,CLR,0.00,VWS V13.01,2013-01-18 13:15:00,
2013-01-18 05:30:00,35.7,32.8,30.17,North,0,2.0,7.0,89,0.00,,CLR,0.00,VWS V13.01,2013-01-18 13:30:00,
2013-01-18 05:45:00,35.5,32.6,30.16,North,0,2.0,7.0,89,0.00,,CLR,0.00,VWS V13.01,2013-01-18 13:45:00,
2013-01-18 06:00:00,35.5,32.9,30.16,North,0,4.0,8.0,90,0.00,,CLR,0.00,VWS V13.01,2013-01-18 14:00:00,
2013-01-18 06:15:00,35.4,32.8,30.17,North,0,3.0,7.0,90,0.00,,CLR,0.00,VWS V13.01,2013-01-18 14:15:00,
2013-01-18 06:30:00,35.3,32.7,30.17,North,0,1.0,6.0,90,0.00,,CLR,0.00,VWS V13.01,2013-01-18 14:30:00,
2013-01-18 06:45:00,34.9,32.3,30.18,North,0,0.0,0.0,90,0.00,,CLR,0.00,VWS V13.01,2013-01-18 14:45:00,
2013-01-18 07:00:00,34.7,32.1,30.18,North,0,1.0,8.0,90,0.00,,CLR,0.00,VWS V13.01,2013-01-18 15:00:00,
2013-01-18 07:15:00,35.0,32.6,30.18,North,0,1.0,6.0,91,0.00,,CLR,0.00,VWS V13.01,2013-01-18 15:15:00,
2013-01-18 07:30:00,34.8,32.2,30.18,North,0,0.0,0.0,90,0.00,,CLR,0.00,VWS V13.01,2013-01-18 15:30:00,
2013-01-18 07:45:00,35.0,32.6,30.18,North,0,0.0,4.0,91,0.00,,CLR,0.00,VWS V13.01,2013-01-18 15:45:00,
2013-01-18 08:00:00,36.5,34.7,30.19,North,0,0.0,4.0,93,0.00,,CLR,0.00,VWS V13.01,2013-01-18 16:00:00,
2013-01-18 08:15:00,38.4,36.3,30.19,North,0,0.0,4.0,92,0.00,,CLR,0.00,VWS V13.01,2013-01-18 16:15:00,
2013-01-18 08:30:00,40.6,37.9,30.20,North,0,2.0,8.0,90,0.00,,CLR,0.00,VWS V13.01,2013-01-18 16:30:00,
2013-01-18 08:45:00,42.6,38.7,30.20,North,0,4.0,10.0,86,0.00,,CLR,0.00,VWS V13.01,2013-01-18 16:45:00,
2013-01-18 09:00:00,44.6,39.5,30.21,North,0,6.0,12.0,82,0.00,,CLR,0.00,VWS V13.01,2013-01-18 17:00:00,
2013-01-18 09:15:00,46.1,39.3,30.21,North,0,6.0,12.0,77,0.00,,CLR,0.00,VWS V13.01,2013-01-18 17:15:00,
2013-01-18 09:30:00,47.2,39.3,30.22,North,0,7.0,13.0,74,0.00,,CLR,0.00,VWS V13.01,2013-01-18 17:30:00,
2013-01-18 09:45:00,48.0,39.4,30.22,NNW,338,9.0,13.0,72,0.00,,CLR,0.00,VWS V13.01,2013-01-18 17:45:00,
2013-01-18 09:58:00,48.4,39.4,30.22,NNW,344,5.0,9.0,71,0.00,,CLR,0.00,VWS V13.01,2013-01-18 17:58:00,
2013-01-18 10:04:00,48.7,39.7,30.22,NNW,346,10.0,13.0,71,0.00,,CLR,0.00,VWS V13.01,2013-01-18 18:04:00,
2013-01-18 10:10:00,49.2,39.8,30.22,NNW,341,6.0,11.0,70,0.00,,CLR,0.00,VWS V13.01,2013-01-18 18:10:00,
2013-01-18 10:16:00,49.7,40.0,30.22,NNW,344,4.0,11.0,69,0.00,,CLR,0.00,VWS V13.01,2013-01-18 18:16:00,
2013-01-18 10:22:00,50.4,40.2,30.22,NNW,346,7.0,9.0,68,0.00,,,0.00,VWS V13.01,2013-01-18 18:22:00,
2013-01-18 10:28:00,51.0,40.8,30.22,North,350,9.0,10.0,68,0.00,,,0.00,VWS V13.01,2013-01-18 18:28:00,
2013-01-18 10:34:00,51.7,40.7,30.22,NNW,345,8.0,10.0,66,0.00,,,0.00,VWS V13.01,2013-01-18 18:34:00,
2013-01-18 10:41:00,52.2,40.4,30.22,NNW,344,7.0,10.0,64,0.00,,,0.00,VWS V13.01,2013-01-18 18:41:00,
2013-01-18 10:47:00,52.7,40.1,30.22,NNW,340,9.0,11.0,62,0.00,,,0.00,VWS V13.01,2013-01-18 18:47:00,
2013-01-18 10:53:00,53.3,39.8,30.22,NNW,338,7.0,11.0,60,0.00,,,0.00,VWS V13.01,2013-01-18 18:53:00,
2013-01-18 10:59:00,54.0,39.6,30.21,NNW,345,8.0,11.0,58,0.00,,,0.00,VWS V13.01,2013-01-18 18:59:00,
2013-01-18 11:04:00,54.5,38.7,30.21,NNW,342,9.0,11.0,55,0.00,,,0.00,VWS V13.01,2013-01-18 19:04:00,
2013-01-18 11:09:00,55.0,40.1,30.21,North,350,5.0,11.0,57,0.00,,,0.00,VWS V13.01,2013-01-18 19:09:00,
2013-01-18 11:15:00,55.6,39.2,30.20,North,355,6.0,11.0,54,0.00,,,0.00,VWS V13.01,2013-01-18 19:15:00,
2013-01-18 11:22:00,56.2,38.8,30.20,North,351,7.0,10.0,52,0.00,,CLR,0.00,VWS V13.01,2013-01-18 19:22:00,
2013-01-18 11:28:00,56.9,39.5,30.20,North,350,2.0,10.0,52,0.00,,CLR,0.00,VWS V13.01,2013-01-18 19:28:00,
2013-01-18 11:34:00,57.5,39.5,30.19,North,350,9.0,10.0,51,0.00,,CLR,0.00,VWS V13.01,2013-01-18 19:34:00,
2013-01-18 11:40:00,58.1,39.1,30.19,North,350,6.0,11.0,49,0.00,,CLR,0.00,VWS V13.01,2013-01-18 19:40:00,
2013-01-18 11:46:00,58.5,36.7,30.18,North,355,7.0,13.0,44,0.00,,CLR,0.00,VWS V13.01,2013-01-18 19:46:00,
2013-01-18 11:52:00,58.8,36.4,30.18,North,5,9.0,9.0,43,0.00,,CLR,0.00,VWS V13.01,2013-01-18 19:52:00,
2013-01-18 11:58:00,59.1,36.0,30.18,North,360,4.0,11.0,42,0.00,,CLR,0.00,VWS V13.01,2013-01-18 19:58:00,
2013-01-18 12:04:00,59.6,35.3,30.17,North,355,6.0,11.0,40,0.00,,CLR,0.00,VWS V13.01,2013-01-18 20:04:00,
2013-01-18 12:10:00,60.2,34.5,30.17,NNW,344,5.0,11.0,38,0.00,,CLR,0.00,VWS V13.01,2013-01-18 20:10:00,
2013-01-18 12:16:00,60.6,33.5,30.17,NNW,338,6.0,12.0,36,0.00,,CLR,0.00,VWS V13.01,2013-01-18 20:16:00,
2013-01-18 12:22:00,61.1,35.3,30.16,NNW,342,11.0,17.0,38,0.00,,CLR,0.00,VWS V13.01,2013-01-18 20:22:00,
2013-01-18 12:28:00,61.3,34.1,30.16,NNW,333,13.0,17.0,36,0.00,,CLR,0.00,VWS V13.01,2013-01-18 20:28:00,
2013-01-18 12:34:00,61.3,34.1,30.16,NNW,340,8.0,17.0,36,0.00,,CLR,0.00,VWS V13.01,2013-01-18 20:34:00,
2013-01-18 12:40:00,61.4,34.2,30.16,North,350,8.0,14.0,36,0.00,,CLR,0.00,VWS V13.01,2013-01-18 20:40:00,
2013-01-18 12:46:00,61.4,34.2,30.15,NNW,342,6.0,14.0,36,0.00,,CLR,0.00,VWS V13.01,2013-01-18 20:46:00,
2013-01-18 12:52:00,61.7,34.5,30.15,North,350,5.0,13.0,36,0.00,,CLR,0.00,VWS V13.01,2013-01-18 20:52:00,
2013-01-18 12:58:00,62.1,34.8,30.14,NNW,340,8.0,16.0,36,0.00,,CLR,0.00,VWS V13.01,2013-01-18 20:58:00,
2013-01-18 13:04:00,62.4,35.8,30.14,North,355,7.0,17.0,37,0.00,,CLR,0.00,VWS V13.01,2013-01-18 21:04:00,
2013-01-18 13:10:00,62.6,36.0,30.14,NNW,342,10.0,13.0,37,0.00,,CLR,0.00,VWS V13.01,2013-01-18 21:10:00,
2013-01-18 13:17:00,62.7,37.4,30.14,North,355,8.0,14.0,39,0.00,,CLR,0.00,VWS V13.01,2013-01-18 21:17:00,
2013-01-18 13:23:00,63.0,36.3,30.14,North,350,7.0,12.0,37,0.00,,CLR,0.00,VWS V13.01,2013-01-18 21:23:00,
2013-01-18 13:29:00,63.3,38.0,30.14,NNW,348,7.0,14.0,39,0.00,,CLR,0.00,VWS V13.01,2013-01-18 21:29:00,
2013-01-18 13:34:00,63.4,38.0,30.14,NNW,338,8.0,15.0,39,0.00,,CLR,0.00,VWS V13.01,2013-01-18 21:34:00,
2013-01-18 13:39:00,63.4,38.0,30.14,NNW,338,5.0,15.0,39,0.00,,CLR,0.00,VWS V13.01,2013-01-18 21:39:00,
2013-01-18 13:45:00,63.5,36.8,30.14,NNW,339,11.0,15.0,37,0.00,,CLR,0.00,VWS V13.01,2013-01-18 21:45:00,
2013-01-18 13:51:00,63.2,35.8,30.13,NNW,341,9.0,15.0,36,0.00,,CLR,0.00,VWS V13.01,2013-01-18 21:51:00,
2013-01-18 13:57:00,63.2,35.8,30.13,NNW,346,9.0,15.0,36,0.00,,CLR,0.00,VWS V13.01,2013-01-18 21:57:00,
2013-01-18 14:03:00,63.2,34.4,30.13,NNW,331,10.0,15.0,34,0.00,,CLR,0.00,VWS V13.01,2013-01-18 22:03:00,
2013-01-18 14:10:00,63.2,35.8,30.13,North,355,10.0,13.0,36,0.00,,CLR,0.00,VWS V13.01,2013-01-18 22:10:00,
2013-01-18 14:16:00,63.2,35.1,30.13,North,355,10.0,16.0,35,0.00,,CLR,0.00,VWS V13.01,2013-01-18 22:16:00,
2013-01-18 14:22:00,63.3,35.2,30.13,NNW,341,13.0,15.0,35,0.00,,CLR,0.00,VWS V13.01,2013-01-18 22:22:00,
2013-01-18 14:28:00,63.3,37.3,30.12,North,355,9.0,15.0,38,0.00,,CLR,0.00,VWS V13.01,2013-01-18 22:28:00,
2013-01-18 14:34:00,63.4,34.6,30.13,North,5,9.0,15.0,34,0.00,,CLR,0.00,VWS V13.01,2013-01-18 22:34:00,
2013-01-18 14:40:00,63.3,35.9,30.13,North,360,5.0,15.0,36,0.00,,CLR,0.00,VWS V13.01,2013-01-18 22:40:00,
2013-01-18 14:46:00,63.4,36.0,30.13,NNW,340,7.0,15.0,36,0.00,,CLR,0.00,VWS V13.01,2013-01-18 22:46:00,
2013-01-18 14:52:00,63.6,36.2,30.13,North,355,9.0,12.0,36,0.00,,CLR,0.00,VWS V13.01,2013-01-18 22:52:00,
2013-01-18 14:58:00,63.8,35.7,30.13,NNW,336,12.0,12.0,35,0.00,,CLR,0.00,VWS V13.01,2013-01-18 22:58:00,
2013-01-18 15:04:00,63.6,34.7,30.12,North,355,8.0,16.0,34,0.00,,CLR,0.00,VWS V13.01,2013-01-18 23:04:00,
2013-01-18 15:10:00,63.3,33.0,30.12,NNW,348,7.0,14.0,32,0.00,,CLR,0.00,VWS V13.01,2013-01-18 23:10:00,
2013-01-18 15:16:00,63.0,32.7,30.12,NNW,339,10.0,14.0,32,0.00,,CLR,0.00,VWS V13.01,2013-01-18 23:16:00,
2013-01-18 15:22:00,62.6,30.8,30.12,North,360,5.0,12.0,30,0.00,,CLR,0.00,VWS V13.01,2013-01-18 23:22:00,
2013-01-18 15:28:00,62.0,31.8,30.12,NNW,343,7.0,14.0,32,0.00,,CLR,0.00,VWS V13.01,2013-01-18 23:28:00,
2013-01-18 15:34:00,61.6,32.2,30.11,North,11,7.0,14.0,33,0.00,,CLR,0.00,VWS V13.01,2013-01-18 23:34:00,
2013-01-18 15:40:00,61.3,32.7,30.11,North,5,10.0,14.0,34,0.00,,CLR,0.00,VWS V13.01,2013-01-18 23:40:00,
2013-01-18 15:46:00,60.9,32.4,30.11,North,360,4.0,14.0,34,0.00,,CLR,0.00,VWS V13.01,2013-01-18 23:46:00,
2013-01-18 15:52:00,60.7,32.2,30.11,NNW,336,11.0,14.0,34,0.00,,CLR,0.00,VWS V13.01,2013-01-18 23:52:00,
2013-01-18 15:58:00,60.4,31.2,30.11,NNW,344,8.0,14.0,33,0.00,,CLR,0.00,VWS V13.01,2013-01-18 23:58:00,
2013-01-18 16:04:00,60.1,33.1,30.11,NNW,342,6.0,14.0,36,0.00,,CLR,0.00,VWS V13.01,2013-01-19 00:04:00,
2013-01-18 16:11:00,59.8,34.2,30.11,North,355,5.0,11.0,38,0.00,,CLR,0.00,VWS V13.01,2013-01-19 00:11:00,
2013-01-18 16:17:00,59.5,34.5,30.11,NNW,342,6.0,12.0,39,0.00,,CLR,0.00,VWS V13.01,2013-01-19 00:17:00,
2013-01-18 16:23:00,59.3,35.0,30.11,NNW,347,6.0,7.0,40,0.00,,CLR,0.00,VWS V13.01,2013-01-19 00:23:00,
2013-01-18 16:29:00,59.0,34.7,30.11,NNW,348,0.0,8.0,40,0.00,,CLR,0.00,VWS V13.01,2013-01-19 00:29:00,
2013-01-18 16:34:00,58.6,35.0,30.11,North,350,4.0,11.0,41,0.00,,CLR,0.00,VWS V13.01,2013-01-19 00:34:00,
2013-01-18 16:39:00,58.2,35.2,30.11,North,350,0.0,7.0,42,0.00,,CLR,0.00,VWS V13.01,2013-01-19 00:39:00,
2013-01-18 16:46:00,57.8,35.5,30.11,North,350,0.0,7.0,43,0.00,,CLR,0.00,VWS V13.01,2013-01-19 00:46:00,
2013-01-18 16:52:00,57.3,35.6,30.11,North,350,0.0,0.0,44,0.00,,CLR,0.00,VWS V13.01,2013-01-19 00:52:00,
2013-01-18 16:58:00,56.9,35.2,30.11,North,350,0.0,0.0,44,0.00,,CLR,0.00,VWS V13.01,2013-01-19 00:58:00,
2013-01-18 17:04:00,56.4,35.3,30.11,North,350,0.0,0.0,45,0.00,,CLR,0.00,VWS V13.01,2013-01-19 01:04:00,
2013-01-18 17:10:00,55.8,34.8,30.11,North,350,0.0,0.0,45,0.00,,CLR,0.00,VWS V13.01,2013-01-19 01:10:00,
2013-01-18 17:16:00,55.3,34.9,30.11,North,350,0.0,0.0,46,0.00,,CLR,0.00,VWS V13.01,2013-01-19 01:16:00,
2013-01-18 17:22:00,54.7,34.9,30.11,North,350,0.0,0.0,47,0.00,,CLR,0.00,VWS V13.01,2013-01-19 01:22:00,
2013-01-18 17:28:00,54.1,34.9,30.11,North,350,0.0,0.0,48,0.00,,CLR,0.00,VWS V13.01,2013-01-19 01:28:00,
2013-01-18 17:34:00,53.5,35.3,30.11,North,350,0.0,0.0,50,0.00,,CLR,0.00,VWS V13.01,2013-01-19 01:34:00,
2013-01-18 17:40:00,52.8,35.7,30.11,North,350,0.0,0.0,52,0.00,,CLR,0.00,VWS V13.01,2013-01-19 01:40:00,
2013-01-18 17:47:00,52.2,35.6,30.12,North,350,0.0,0.0,53,0.00,,CLR,0.00,VWS V13.01,2013-01-19 01:47:00,
2013-01-18 17:53:00,51.7,35.6,30.12,North,350,0.0,0.0,54,0.00,,CLR,0.00,VWS V13.01,2013-01-19 01:53:00,
2013-01-18 17:59:00,51.1,35.5,30.11,North,350,0.0,0.0,55,0.00,,CLR,0.00,VWS V13.01,2013-01-19 01:59:00,
2013-01-18 18:04:00,50.6,35.5,30.11,North,350,0.0,0.0,56,0.00,,CLR,0.00,VWS V13.01,2013-01-19 02:04:00,
2013-01-18 18:09:00,50.1,35.5,30.12,North,350,0.0,0.0,57,0.00,,CLR,0.00,VWS V13.01,2013-01-19 02:09:00,
2013-01-18 18:15:00,49.5,35.3,30.12,North,350,0.0,0.0,58,0.00,,CLR,0.00,VWS V13.01,2013-01-19 02:15:00,
2013-01-18 18:21:00,48.9,35.6,30.11,North,350,0.0,0.0,60,0.00,,CLR,0.00,VWS V13.01,2013-01-19 02:21:00,
2013-01-18 18:27:00,48.4,35.6,30.11,North,350,0.0,0.0,61,0.00,,CLR,0.00,VWS V13.01,2013-01-19 02:27:00,
2013-01-18 18:34:00,48.1,35.7,30.11,North,350,0.0,0.0,62,0.00,,CLR,0.00,VWS V13.01,2013-01-19 02:34:00,
2013-01-18 18:40:00,47.8,35.4,30.11,North,350,0.0,0.0,62,0.00,,CLR,0.00,VWS V13.01,2013-01-19 02:40:00,
2013-01-18 18:46:00,47.5,35.5,30.11,North,350,0.0,0.0,63,0.00,,CLR,0.00,VWS V13.01,2013-01-19 02:46:00,
2013-01-18 18:52:00,46.8,34.9,30.11,North,350,0.0,0.0,63,0.00,,CLR,0.00,VWS V13.01,2013-01-19 02:52:00,
2013-01-18 18:58:00,46.2,34.7,30.12,North,350,0.0,0.0,64,0.00,,CLR,0.00,VWS V13.01,2013-01-19 02:58:00,
2013-01-18 19:04:00,45.6,34.5,30.12,North,350,0.0,0.0,65,0.00,,CLR,0.00,VWS V13.01,2013-01-19 03:04:00,
2013-01-18 19:10:00,45.1,34.0,30.12,North,350,0.0,0.0,65,0.00,,CLR,0.00,VWS V13.01,2013-01-19 03:10:00,
2013-01-18 19:18:00,44.5,33.5,30.13,North,350,0.0,0.0,65,0.00,,CLR,0.00,VWS V13.01,2013-01-19 03:18:00,
2013-01-18 19:24:00,44.1,33.5,30.12,North,350,0.0,0.0,66,0.00,,CLR,0.00,VWS V13.01,2013-01-19 03:24:00,
2013-01-18 19:30:00,43.8,33.2,30.12,North,350,0.0,0.0,66,0.00,,CLR,0.00,VWS V13.01,2013-01-19 03:30:00,
2013-01-18 19:36:00,43.5,33.3,30.12,North,350,0.0,0.0,67,0.00,,CLR,0.00,VWS V13.01,2013-01-19 03:36:00,
2013-01-18 19:42:00,43.3,33.5,30.12,North,350,0.0,0.0,68,0.00,,CLR,0.00,VWS V13.01,2013-01-19 03:42:00,
2013-01-18 19:48:00,43.0,33.2,30.12,North,350,0.0,0.0,68,0.00,,CLR,0.00,VWS V13.01,2013-01-19 03:48:00,
2013-01-18 19:54:00,42.8,33.3,30.12,North,350,0.0,0.0,69,0.00,,CLR,0.00,VWS V13.01,2013-01-19 03:54:00,
2013-01-18 20:00:00,42.7,33.2,30.12,North,350,0.0,0.0,69,0.00,,CLR,0.00,VWS V13.01,2013-01-19 04:00:00,
2013-01-18 20:07:00,42.5,33.1,30.12,North,350,0.0,0.0,69,0.00,,CLR,0.00,VWS V13.01,2013-01-19 04:07:00,
2013-01-18 20:13:00,42.2,32.8,30.12,North,350,0.0,0.0,69,0.00,,CLR,0.00,VWS V13.01,2013-01-19 04:13:00,
2013-01-18 20:19:00,41.8,32.4,30.12,North,350,0.0,0.0,69,0.00,,CLR,0.00,VWS V13.01,2013-01-19 04:19:00,
2013-01-18 20:25:00,41.3,31.9,30.12,North,350,0.0,0.0,69,0.00,,CLR,0.00,VWS V13.01,2013-01-19 04:25:00,
2013-01-18 20:31:00,40.7,31.3,30.12,North,350,0.0,0.0,69,0.00,,CLR,0.00,VWS V13.01,2013-01-19 04:31:00,
2013-01-18 20:37:00,40.2,31.2,30.12,North,350,0.0,0.0,70,0.00,,CLR,0.00,VWS V13.01,2013-01-19 04:37:00,
2013-01-18 20:43:00,39.6,31.0,30.13,North,350,0.0,0.0,71,0.00,,CLR,0.00,VWS V13.01,2013-01-19 04:43:00,
2013-01-18 20:49:00,39.0,30.8,30.12,North,350,0.0,0.0,72,0.00,,CLR,0.00,VWS V13.01,2013-01-19 04:49:00,
2013-01-18 20:55:00,38.5,30.6,30.12,North,350,0.0,0.0,73,0.00,,CLR,0.00,VWS V13.01,2013-01-19 04:55:00,
2013-01-18 21:02:00,38.1,30.9,30.13,North,350,0.0,0.0,75,0.00,,CLR,0.00,VWS V13.01,2013-01-19 05:02:00,
2013-01-18 21:03:00,38.0,30.8,30.12,North,350,0.0,0.0,75,0.00,,CLR,0.00,VWS V13.01,2013-01-19 05:03:00,
2013-01-18 21:05:00,37.9,31.0,30.13,North,350,0.0,0.0,76,0.00,,CLR,0.00,VWS V13.01,2013-01-19 05:05:00,
2013-01-18 21:11:00,37.6,30.7,30.13,North,350,0.0,0.0,76,0.00,,CLR,0.00,VWS V13.01,2013-01-19 05:11:00,
2013-01-18 21:17:00,37.2,30.7,30.13,North,350,0.0,0.0,77,0.00,,CLR,0.00,VWS V13.01,2013-01-19 05:17:00,
2013-01-18 21:23:00,36.9,30.4,30.13,North,350,0.0,0.0,77,0.00,,CLR,0.00,VWS V13.01,2013-01-19 05:23:00,
2013-01-18 21:25:00,36.8,30.3,30.13,North,350,0.0,0.0,77,0.00,,CLR,0.00,VWS V13.01,2013-01-19 05:25:00,
2013-01-18 21:31:00,36.6,30.4,30.13,North,350,0.0,0.0,78,0.00,,CLR,0.00,VWS V13.01,2013-01-19 05:31:00,
2013-01-18 21:37:00,36.3,30.4,30.13,North,350,0.0,0.0,79,0.00,,CLR,0.00,VWS V13.01,2013-01-19 05:37:00,
2013-01-18 21:43:00,36.2,30.3,30.13,North,350,0.0,0.0,79,0.00,,CLR,0.00,VWS V13.01,2013-01-19 05:43:00,
2013-01-18 21:49:00,36.1,30.5,30.13,North,350,0.0,0.0,80,0.00,,CLR,0.00,VWS V13.01,2013-01-19 05:49:00,
2013-01-18 21:55:00,36.0,30.4,30.13,North,350,0.0,0.0,80,0.00,,CLR,0.00,VWS V13.01,2013-01-19 05:55:00,
2013-01-18 22:01:00,36.0,30.8,30.13,North,350,0.0,0.0,81,0.00,,CLR,0.00,VWS V13.01,2013-01-19 06:01:00,
2013-01-18 22:07:00,36.1,30.5,30.13,North,350,0.0,0.0,80,0.00,,CLR,0.00,VWS V13.01,2013-01-19 06:07:00,
2013-01-18 22:15:00,36.5,30.6,30.13,North,0,0.0,0.0,79,0.00,,CLR,0.00,VWS V13.01,2013-01-19 06:15:00,
2013-01-18 22:30:00,37.1,30.9,30.14,North,0,0.0,0.0,78,0.00,,CLR,0.00,VWS V13.01,2013-01-19 06:30:00,
2013-01-18 22:45:00,37.1,30.6,30.13,North,0,0.0,0.0,77,0.00,,CLR,0.00,VWS V13.01,2013-01-19 06:45:00,
2013-01-18 23:00:00,36.9,30.0,30.14,North,0,0.0,0.0,76,0.00,,CLR,0.00,VWS V13.01,2013-01-19 07:00:00,
2013-01-18 23:15:00,36.6,29.8,30.14,North,0,0.0,0.0,76,0.00,,CLR,0.00,VWS V13.01,2013-01-19 07:15:00,
2013-01-18 23:30:00,36.4,29.6,30.14,North,0,0.0,0.0,76,0.00,,CLR,0.00,VWS V13.01,2013-01-19 07:30:00,
2013-01-18 23:45:00,36.3,29.5,30.14,North,0,0.0,0.0,76,0.00,,CLR,0.00,VWS V13.01,2013-01-19 07:45:00,